Main page
METAR-TAF:

METAR-TAF

Airports :

Gibraltar, Gibraltar

Gibraltar International Airport

latitude: 36-09N, longitude: 005-21W, elevation: 5 m

Current weather observation

The report was made 1 hour and 6 minutes ago, at 07:50 UTC
Wind 9 kt from the West
Temperature 15°C
Humidity 67%
Pressure 1017 hPa
Visibility 10 km or more
Few clouds at a height of 2700 ft

METAR: LXGB 300750Z 28009KT 9999 FEW027 15/09 Q1017 NOSIG

Time: 10:56 (08:56 UTC)

Forecast

The report was made 1 hour and 21 minutes ago, at 07:35 UTC
Forecast valid from 30 at 09 UTC to 30 at 18 UTC
Wind 12 kt from the West
Visibility 10 km or more
Few clouds at a height of 2500 ft
Scattered clouds at a height of 4500 ft
Probability 30% :
Temporary
from 30 at 12 UTC to 30 at 18 UTC
Wind 15 kt from the West with gusts up to 25 kt

TAF: LXGB 300735Z 3009/3018 27012KT 9999 FEW025 SCT045 PROB30 TEMPO 3012/3018 26015G25KT

Weather observations and forecasts of more than 4000 airports (METAR and TAF reports).

The available stations are represented by yellow and red dots on the map.

Hover mouse over dot to see the name of the station.

Then click to see weather observations and forecasts.

To change the map : click on the green buttons with a black cross to zoom in, on the green button with a dash to zoom out, or on the green arrows for adjacent maps.


METAR-TAF: